Time;durP1;ratioP1;P1;durP2;ratioP2;P2;SDS_P1;SDS_P2;PMS_P1;PMS_P2;Temp;Humidity;BMP_temperature;BMP_pressure;BME280_temperature;BME280_humidity;BME280_pressure;Samples;Min_cycle;Max_cycle;Signal;HPM_P1;HPM_P2
2021/07/06 00:02:16;;;;;;;6.18;5.18;;;;;;;-144.13;100.00;64086.75;4957005;28;20035;-48
2021/07/06 00:04:42;;;;;;;11.55;5.35;;;;;;;-144.13;100.00;64086.75;4952087;28;20110;-49
2021/07/06 00:07:07;;;;;;;21.02;5.63;;;;;;;-144.13;100.00;64086.75;4959838;28;20149;-49
2021/07/06 00:09:33;;;;;;;26.25;6.32;;;;;;;-144.13;100.00;64086.75;4957047;28;20035;-49
2021/07/06 00:11:58;;;;;;;8.82;5.80;;;;;;;-144.13;100.00;64086.75;4957651;28;20046;-50
2021/07/06 00:14:24;;;;;;;10.18;5.70;;;;;;;-144.13;100.00;64086.75;4957332;28;20172;-49
2021/07/06 00:16:50;;;;;;;11.90;6.03;;;;;;;-144.13;100.00;64086.75;4957608;28;20045;-49
2021/07/06 00:19:15;;;;;;;10.20;6.05;;;;;;;-144.13;100.00;64086.75;4954660;28;20027;-49
2021/07/06 00:21:41;;;;;;;8.75;5.30;;;;;;;-144.13;100.00;64086.75;4958931;28;20045;-48
2021/07/06 00:24:06;;;;;;;7.70;6.13;;;;;;;-144.13;100.00;64086.75;4956046;28;20054;-50
2021/07/06 00:26:32;;;;;;;9.98;6.57;;;;;;;-144.13;100.00;64086.75;4955641;28;20042;-49
2021/07/06 00:28:57;;;;;;;8.20;5.90;;;;;;;-144.13;100.00;64086.75;4960842;28;20033;-49
2021/07/06 00:31:23;;;;;;;7.00;5.93;;;;;;;-144.13;100.00;64086.75;4956279;28;20031;-49
2021/07/06 00:33:51;;;;;;;23.95;9.63;;;;;;;-144.13;100.00;64086.75;4957905;28;20520;-49
2021/07/06 00:36:16;;;;;;;9.23;6.40;;;;;;;-144.13;100.00;64086.75;4953426;28;20207;-49
2021/07/06 00:38:42;;;;;;;8.35;5.78;;;;;;;-144.13;100.00;64086.75;4956701;28;20042;-48
2021/07/06 00:41:07;;;;;;;8.07;6.43;;;;;;;-144.13;100.00;64086.75;4954702;28;20023;-49
2021/07/06 00:43:36;;;;;;;10.00;6.72;;;;;;;-144.13;100.00;64086.75;4961334;28;20031;-49
2021/07/06 00:46:02;;;;;;;7.03;6.00;;;;;;;-144.13;100.00;64086.75;4953581;28;20096;-49
2021/07/06 00:48:28;;;;;;;7.13;6.05;;;;;;;-144.13;100.00;64086.75;4954433;28;20038;-49
2021/07/06 00:50:54;;;;;;;10.65;6.20;;;;;;;-144.13;100.00;64086.75;4955390;28;20037;-49
2021/07/06 00:53:20;;;;;;;10.27;6.28;;;;;;;-144.13;100.00;64086.75;4955765;28;20274;-49
2021/07/06 00:55:47;;;;;;;9.80;6.80;;;;;;;-144.13;100.00;64086.75;4955733;28;20023;-50
2021/07/06 00:58:17;;;;;;;10.93;6.32;;;;;;;-144.13;100.00;64086.75;4953139;28;20528;-49
2021/07/06 01:00:42;;;;;;;7.25;5.47;;;;;;;-144.13;100.00;64086.75;4945248;28;20043;-50
2021/07/06 01:03:09;;;;;;;6.22;5.32;;;;;;;-144.13;100.00;64086.75;4952693;28;20363;-49
2021/07/06 01:05:35;;;;;;;7.25;5.75;;;;;;;-144.13;100.00;64086.75;4956037;28;20042;-49
2021/07/06 01:08:01;;;;;;;8.13;5.43;;;;;;;-144.13;100.00;64086.75;4957407;28;20031;-49
2021/07/06 01:10:27;;;;;;;7.78;6.05;;;;;;;-144.13;100.00;64086.75;4955229;28;20038;-49
2021/07/06 01:12:52;;;;;;;5.95;5.20;;;;;;;-144.13;100.00;64086.75;4955420;28;20026;-49
2021/07/06 01:15:20;;;;;;;8.93;5.93;;;;;;;-144.13;100.00;64086.75;4958595;28;20501;-49
2021/07/06 01:18:00;;;;;;;9.13;6.25;;;;;;;-144.13;100.00;64086.75;4954781;28;20027;-48
2021/07/06 01:20:27;;;;;;;12.70;6.10;;;;;;;-144.13;100.00;64086.75;4954098;28;20027;-49
2021/07/06 01:22:52;;;;;;;7.32;5.85;;;;;;;-144.13;100.00;64086.75;4953758;28;20163;-48
2021/07/06 01:25:18;;;;;;;7.95;5.88;;;;;;;-144.13;100.00;64086.75;4948670;28;20864;-49
2021/07/06 01:27:44;;;;;;;10.40;5.60;;;;;;;-144.13;100.00;64086.75;4957697;28;20023;-49
2021/07/06 01:30:12;;;;;;;7.03;4.18;;;;;;;-144.13;100.00;64086.75;4959086;28;20593;-49
2021/07/06 01:32:43;;;;;;;5.35;4.75;;;;;;;-144.13;100.00;64086.75;4955416;28;20610;-49
2021/07/06 01:35:10;;;;;;;7.78;5.55;;;;;;;-144.13;100.00;64086.75;4955459;28;20058;-49
2021/07/06 01:37:36;;;;;;;7.65;5.25;;;;;;;-144.13;100.00;64086.75;4953498;28;20031;-49
2021/07/06 01:40:03;;;;;;;6.97;5.30;;;;;;;-144.13;100.00;64086.75;4952904;28;20022;-49
2021/07/06 01:42:28;;;;;;;11.30;7.50;;;;;;;-144.13;100.00;64086.75;4953529;28;20134;-48
2021/07/06 01:45:06;;;;;;;7.82;6.03;;;;;;;-144.13;100.00;64086.75;4954032;28;20350;-48
2021/07/06 01:47:35;;;;;;;9.30;6.45;;;;;;;-144.13;100.00;64086.75;4954382;28;20494;-48
2021/07/06 01:50:01;;;;;;;12.05;6.90;;;;;;;-144.13;100.00;64086.75;4952721;28;20063;-48
2021/07/06 01:52:26;;;;;;;10.80;6.03;;;;;;;-144.13;100.00;64086.75;4954702;28;20055;-48
2021/07/06 01:54:52;;;;;;;10.38;6.82;;;;;;;-144.13;100.00;64086.75;4954379;28;20393;-48
2021/07/06 01:57:17;;;;;;;9.05;5.72;;;;;;;-144.13;100.00;64086.75;4955507;28;20426;-49
2021/07/06 01:59:43;;;;;;;9.00;5.47;;;;;;;-144.13;100.00;64086.75;4936547;28;20058;-49
2021/07/06 02:02:08;;;;;;;9.65;6.05;;;;;;;-144.13;100.00;64086.75;4953776;28;20397;-49
2021/07/06 02:04:34;;;;;;;10.13;5.63;;;;;;;-144.13;100.00;64086.75;4951296;28;20456;-50
2021/07/06 02:06:59;;;;;;;11.30;5.55;;;;;;;-144.13;100.00;64086.75;4952986;28;20035;-48
2021/07/06 02:09:25;;;;;;;14.98;5.70;;;;;;;-144.13;100.00;64086.75;4956474;28;20031;-49
2021/07/06 02:11:50;;;;;;;9.25;5.30;;;;;;;-144.13;100.00;64086.75;4958249;28;20110;-48
2021/07/06 02:14:16;;;;;;;11.48;5.53;;;;;;;-144.13;100.00;64086.75;4958010;28;20125;-48
2021/07/06 02:16:43;;;;;;;8.98;6.25;;;;;;;-144.13;100.00;64086.75;4959650;28;20110;-48
2021/07/06 02:19:09;;;;;;;10.60;6.45;;;;;;;-144.13;100.00;64086.75;4958158;28;20030;-49
2021/07/06 02:21:34;;;;;;;5.97;4.95;;;;;;;-144.13;100.00;64086.75;4955364;28;20485;-49
2021/07/06 02:24:00;;;;;;;10.10;6.10;;;;;;;-144.13;100.00;64086.75;4959288;28;20026;-48
2021/07/06 02:26:25;;;;;;;9.50;6.05;;;;;;;-144.13;100.00;64086.75;4957641;28;20134;-48
2021/07/06 02:28:51;;;;;;;11.40;5.15;;;;;;;-144.13;100.00;64086.75;4956455;28;20027;-48
2021/07/06 02:31:16;;;;;;;9.93;6.80;;;;;;;-144.13;100.00;64086.75;4957002;28;20086;-48
2021/07/06 02:33:42;;;;;;;12.43;7.78;;;;;;;-144.13;100.00;64086.75;4956699;28;20046;-48
2021/07/06 02:36:08;;;;;;;13.52;7.13;;;;;;;-144.13;100.00;64086.75;4958565;28;20034;-48
2021/07/06 02:38:39;;;;;;;10.25;5.85;;;;;;;-144.13;100.00;64086.75;4953288;28;20036;-48
2021/07/06 02:41:04;;;;;;;4.93;4.05;;;;;;;-144.13;100.00;64086.75;4957683;28;20023;-49
2021/07/06 02:43:30;;;;;;;5.00;4.05;;;;;;;-144.13;100.00;64086.75;4958375;28;20374;-49
2021/07/06 02:45:55;;;;;;;13.30;5.10;;;;;;;-144.13;100.00;64086.75;4955224;28;20032;-49
2021/07/06 02:48:21;;;;;;;6.85;4.93;;;;;;;-144.13;100.00;64086.75;4959359;28;20022;-48
2021/07/06 02:50:46;;;;;;;4.88;4.07;;;;;;;-144.13;100.00;64086.75;4957147;28;20019;-49
2021/07/06 02:53:12;;;;;;;7.57;4.50;;;;;;;-144.13;100.00;64086.75;4955880;28;20031;-48
2021/07/06 02:55:39;;;;;;;11.48;7.20;;;;;;;-144.13;100.00;64086.75;4956615;28;20023;-49
2021/07/06 02:58:05;;;;;;;9.73;7.13;;;;;;;-144.13;100.00;64086.75;4956416;28;20069;-48
2021/07/06 03:00:32;;;;;;;7.82;6.07;;;;;;;-144.13;100.00;64086.75;4958432;28;20046;-49
2021/07/06 03:03:01;;;;;;;9.07;5.18;;;;;;;-144.13;100.00;64086.75;4952881;28;20078;-48
2021/07/06 03:05:30;;;;;;;6.00;4.60;;;;;;;-144.13;100.00;64086.75;4959815;28;20026;-48
2021/07/06 03:07:57;;;;;;;9.02;4.65;;;;;;;-144.13;100.00;64086.75;4957469;28;20030;-47
2021/07/06 03:10:28;;;;;;;11.60;4.25;;;;;;;-144.13;100.00;64086.75;4959371;28;20031;-48
2021/07/06 03:12:54;;;;;;;7.55;4.47;;;;;;;-144.13;100.00;64086.75;4956777;28;20035;-51
2021/07/06 03:15:22;;;;;;;6.80;4.28;;;;;;;-144.13;100.00;64086.75;4955100;28;20026;-48
2021/07/06 03:17:48;;;;;;;7.75;4.45;;;;;;;-144.13;100.00;64086.75;4957597;28;20058;-51
2021/07/06 03:20:16;;;;;;;7.78;5.53;;;;;;;-144.13;100.00;64086.75;4957231;28;20035;-48
2021/07/06 03:22:42;;;;;;;11.43;5.78;;;;;;;-144.13;100.00;64086.75;4957485;28;20050;-48
2021/07/06 03:25:10;;;;;;;8.63;5.95;;;;;;;-144.13;100.00;64086.75;4944464;28;20515;-48
2021/07/06 03:27:37;;;;;;;5.40;4.88;;;;;;;-144.13;100.00;64086.75;4955220;28;20035;-49
2021/07/06 03:30:07;;;;;;;8.63;6.07;;;;;;;-144.13;100.00;64086.75;4957555;28;20089;-48
2021/07/06 03:32:33;;;;;;;8.77;6.20;;;;;;;-144.13;100.00;64086.75;4957459;28;20485;-51
2021/07/06 03:35:01;;;;;;;9.90;6.15;;;;;;;-144.13;100.00;64086.75;4955789;28;20023;-49
2021/07/06 03:37:26;;;;;;;9.32;6.70;;;;;;;-144.13;100.00;64086.75;4956286;28;20992;-49
2021/07/06 03:39:52;;;;;;;9.80;6.28;;;;;;;-144.13;100.00;64086.75;4953163;28;20540;-49
2021/07/06 03:42:17;;;;;;;11.07;7.50;;;;;;;-144.13;100.00;64086.75;4957096;28;20054;-48
2021/07/06 03:44:43;;;;;;;19.30;8.70;;;;;;;-144.13;100.00;64086.75;4950956;28;20520;-49
2021/07/06 03:47:09;;;;;;;13.73;9.13;;;;;;;-144.13;100.00;64086.75;4958410;28;20037;-49
2021/07/06 03:49:34;;;;;;;13.00;8.95;;;;;;;-144.13;100.00;64086.75;4955761;28;20454;-50
2021/07/06 03:52:00;;;;;;;13.15;8.13;;;;;;;-144.13;100.00;64086.75;4959927;28;20026;-49
2021/07/06 03:54:26;;;;;;;13.30;8.23;;;;;;;-144.13;100.00;64086.75;4956306;28;20031;-48
2021/07/06 03:56:51;;;;;;;13.73;8.77;;;;;;;-144.13;100.00;64086.75;4958799;28;20033;-49
2021/07/06 03:59:17;;;;;;;13.27;8.68;;;;;;;-144.13;100.00;64086.75;4955449;28;20783;-48
2021/07/06 04:01:42;;;;;;;10.95;8.13;;;;;;;-144.13;100.00;64086.75;4947483;28;20038;-48
2021/07/06 04:04:08;;;;;;;13.30;8.45;;;;;;;-144.13;100.00;64086.75;4955209;28;20023;-49
2021/07/06 04:06:33;;;;;;;17.02;8.95;;;;;;;-144.13;100.00;64086.75;4958381;28;20035;-49
2021/07/06 04:08:59;;;;;;;12.15;7.97;;;;;;;-144.13;100.00;64086.75;4959559;28;20549;-51
2021/07/06 04:11:24;;;;;;;13.13;8.65;;;;;;;-144.13;100.00;64086.75;4953802;28;20031;-49
2021/07/06 04:13:50;;;;;;;11.43;9.60;;;;;;;-144.13;100.00;64086.75;4957912;28;20027;-49
2021/07/06 04:16:16;;;;;;;9.95;8.38;;;;;;;-144.13;100.00;64086.75;4952515;28;20031;-49
2021/07/06 04:18:42;;;;;;;17.13;9.07;;;;;;;-144.13;100.00;64086.75;4957263;28;20022;-49
2021/07/06 04:21:08;;;;;;;13.88;9.20;;;;;;;-144.13;100.00;64086.75;4953309;28;20639;-49
2021/07/06 04:23:34;;;;;;;9.90;8.38;;;;;;;-144.13;100.00;64086.75;4955214;28;20447;-48
2021/07/06 04:26:01;;;;;;;10.98;8.70;;;;;;;-144.13;100.00;64086.75;4952887;28;20027;-49
2021/07/06 04:28:26;;;;;;;14.40;8.55;;;;;;;-144.13;100.00;64086.75;4952764;28;20046;-50
2021/07/06 04:30:51;;;;;;;13.48;9.13;;;;;;;-144.13;100.00;64086.75;4957995;28;20023;-50
2021/07/06 04:33:17;;;;;;;14.07;8.57;;;;;;;-144.13;100.00;64086.75;4953314;28;20788;-51
2021/07/06 04:35:42;;;;;;;11.23;8.52;;;;;;;-144.13;100.00;64086.75;4952401;28;20119;-49
2021/07/06 04:38:08;;;;;;;10.75;7.80;;;;;;;-144.13;100.00;64086.75;4953992;28;20055;-49
2021/07/06 04:40:33;;;;;;;13.75;8.05;;;;;;;-144.13;100.00;64086.75;4951637;28;20060;-50
2021/07/06 04:43:00;;;;;;;11.20;8.02;;;;;;;-144.13;100.00;64086.75;4950943;28;20023;-51
2021/07/06 04:45:26;;;;;;;9.75;7.32;;;;;;;-144.13;100.00;64086.75;4953275;28;20035;-49
2021/07/06 04:47:51;;;;;;;10.25;7.05;;;;;;;-144.13;100.00;64086.75;4942061;28;20089;-48
2021/07/06 04:50:17;;;;;;;14.20;7.63;;;;;;;-144.13;100.00;64086.75;4954013;28;20521;-48
2021/07/06 04:52:48;;;;;;;12.05;7.10;;;;;;;-144.13;100.00;64086.75;4958041;28;20033;-49
2021/07/06 04:55:18;;;;;;;14.43;7.25;;;;;;;-144.13;100.00;64086.75;4953444;28;20035;-49
2021/07/06 04:57:45;;;;;;;13.98;7.55;;;;;;;-144.13;100.00;64086.75;4952503;28;20404;-49
2021/07/06 05:00:12;;;;;;;11.38;8.38;;;;;;;-144.13;100.00;64086.75;4957769;28;21727;-50
2021/07/06 05:02:38;;;;;;;10.27;7.32;;;;;;;-144.13;100.00;64086.75;4953528;28;20389;-49
2021/07/06 05:05:05;;;;;;;11.25;7.70;;;;;;;-144.13;100.00;64086.75;4953746;28;20031;-49
2021/07/06 05:07:31;;;;;;;10.52;7.20;;;;;;;-144.13;100.00;64086.75;4952212;28;20023;-50
2021/07/06 05:09:56;;;;;;;8.00;6.80;;;;;;;-144.13;100.00;64086.75;4940241;28;20035;-49
2021/07/06 05:12:22;;;;;;;10.25;7.72;;;;;;;-144.13;100.00;64086.75;4951498;28;20264;-49
2021/07/06 05:14:47;;;;;;;9.23;6.50;;;;;;;-144.13;100.00;64086.75;4957156;28;20610;-50
2021/07/06 05:17:13;;;;;;;10.23;7.10;;;;;;;-144.13;100.00;64086.75;4953343;28;20753;-48
2021/07/06 05:19:38;;;;;;;9.77;6.15;;;;;;;-144.13;100.00;64086.75;4950984;28;20085;-49
2021/07/06 05:22:04;;;;;;;8.77;6.05;;;;;;;-144.13;100.00;64086.75;4951652;28;20027;-49
2021/07/06 05:24:29;;;;;;;9.70;6.22;;;;;;;-144.13;100.00;64086.75;4952093;28;20405;-49
2021/07/06 05:26:55;;;;;;;8.48;6.30;;;;;;;-144.13;100.00;64086.75;4952130;28;20027;-51
2021/07/06 05:29:20;;;;;;;11.25;6.72;;;;;;;-144.13;100.00;64086.75;4950668;28;20031;-49
2021/07/06 05:31:46;;;;;;;9.00;6.47;;;;;;;-144.13;100.00;64086.75;4957167;28;20026;-49
2021/07/06 05:34:11;;;;;;;8.63;6.28;;;;;;;-144.13;100.00;64086.75;4951581;28;20406;-49
2021/07/06 05:36:37;;;;;;;10.48;6.30;;;;;;;-144.13;100.00;64086.75;4955825;28;20090;-49
2021/07/06 05:39:02;;;;;;;13.23;6.75;;;;;;;-144.13;100.00;64086.75;4950672;28;20041;-49
2021/07/06 05:41:28;;;;;;;7.53;6.05;;;;;;;-144.13;100.00;64086.75;4953584;28;20341;-50
2021/07/06 05:43:53;;;;;;;10.25;5.88;;;;;;;-144.13;100.00;64086.75;4952085;28;20027;-49
2021/07/06 05:46:19;;;;;;;10.68;5.97;;;;;;;-144.13;100.00;64086.75;4952915;28;20026;-49
2021/07/06 05:48:45;;;;;;;8.13;5.47;;;;;;;-144.13;100.00;64086.75;4955606;28;20027;-49
2021/07/06 05:51:11;;;;;;;6.80;5.60;;;;;;;-144.13;100.00;64086.75;4951833;28;20484;-50
2021/07/06 05:53:37;;;;;;;11.25;5.82;;;;;;;-144.13;100.00;64086.75;4950701;28;20023;-51
2021/07/06 05:56:03;;;;;;;6.68;4.78;;;;;;;-144.13;100.00;64086.75;4950749;28;20285;-51
2021/07/06 05:58:29;;;;;;;14.68;5.18;;;;;;;-144.13;100.00;64086.75;4951544;28;20393;-49
2021/07/06 06:00:54;;;;;;;6.63;4.35;;;;;;;-144.13;100.00;64086.75;4952770;28;20259;-50
2021/07/06 06:03:20;;;;;;;9.55;4.07;;;;;;;-144.13;100.00;64086.75;4951317;28;20555;-50
2021/07/06 06:05:45;;;;;;;5.95;3.78;;;;;;;-144.13;100.00;64086.75;4953166;28;20065;-49
2021/07/06 06:08:15;;;;;;;6.40;3.60;;;;;;;-144.13;100.00;64086.75;4950932;28;20034;-51
2021/07/06 06:10:40;;;;;;;9.93;3.67;;;;;;;-144.13;100.00;64086.75;4953146;28;20027;-52
2021/07/06 06:13:06;;;;;;;5.75;3.63;;;;;;;-144.13;100.00;64086.75;4951445;28;20023;-49
2021/07/06 06:15:31;;;;;;;7.00;3.88;;;;;;;-144.13;100.00;64086.75;4951958;28;20029;-49
2021/07/06 06:17:57;;;;;;;9.75;3.65;;;;;;;-144.13;100.00;64086.75;4952915;28;20046;-50
2021/07/06 06:20:23;;;;;;;3.90;3.20;;;;;;;-144.13;100.00;64086.75;4948860;28;20343;-50
2021/07/06 06:22:48;;;;;;;5.90;3.35;;;;;;;-144.13;100.00;64086.75;4952974;28;20110;-51
2021/07/06 06:25:14;;;;;;;4.63;3.45;;;;;;;-144.13;100.00;64086.75;4950256;28;20551;-49
2021/07/06 06:27:40;;;;;;;6.40;3.00;;;;;;;-144.13;100.00;64086.75;4953837;28;20290;-49
2021/07/06 06:30:09;;;;;;;4.65;3.50;;;;;;;-144.13;100.00;64086.75;4953212;28;20041;-52
2021/07/06 06:32:35;;;;;;;7.80;3.00;;;;;;;-144.13;100.00;64086.75;4954431;28;20556;-51
2021/07/06 06:35:00;;;;;;;6.47;2.92;;;;;;;-144.13;100.00;64086.75;4953698;28;20485;-52
2021/07/06 06:37:26;;;;;;;6.65;3.00;;;;;;;-144.13;100.00;64086.75;4951994;28;20029;-50
2021/07/06 06:39:51;;;;;;;6.85;3.03;;;;;;;-144.13;100.00;64086.75;4950600;28;20042;-50
2021/07/06 06:42:17;;;;;;;5.68;3.03;;;;;;;-144.13;100.00;64086.75;4952979;28;20063;-50
2021/07/06 06:44:42;;;;;;;3.45;2.97;;;;;;;-144.13;100.00;64086.75;4953502;28;20166;-51
2021/07/06 06:47:08;;;;;;;5.95;3.00;;;;;;;-144.13;100.00;64086.75;4950993;28;20178;-52
2021/07/06 06:49:34;;;;;;;5.25;3.20;;;;;;;-144.13;100.00;64086.75;4951496;28;20104;-53
2021/07/06 06:52:00;;;;;;;6.28;2.83;;;;;;;-144.13;100.00;64086.75;4955607;28;20105;-50
2021/07/06 06:54:25;;;;;;;4.05;3.10;;;;;;;-144.13;100.00;64086.75;4952529;28;20612;-50
2021/07/06 06:56:51;;;;;;;4.07;2.97;;;;;;;-144.13;100.00;64086.75;4958315;28;20050;-51
2021/07/06 06:59:16;;;;;;;5.10;2.80;;;;;;;-144.13;100.00;64086.75;4957732;28;20035;-52
2021/07/06 07:01:44;;;;;;;5.05;2.65;;;;;;;-144.13;100.00;64086.75;4954306;28;20035;-50
2021/07/06 07:04:10;;;;;;;3.72;2.65;;;;;;;-144.13;100.00;64086.75;4957963;28;20023;-49
2021/07/06 07:06:36;;;;;;;4.07;2.97;;;;;;;-144.13;100.00;64086.75;4961627;28;20075;-51
2021/07/06 07:09:04;;;;;;;5.75;2.80;;;;;;;-144.13;100.00;64086.75;4961973;28;20493;-50
2021/07/06 07:11:30;;;;;;;4.13;2.60;;;;;;;-144.13;100.00;64086.75;4954680;28;20027;-50
2021/07/06 07:13:55;;;;;;;4.00;2.38;;;;;;;-144.13;100.00;64086.75;4959944;28;20034;-50
2021/07/06 07:16:21;;;;;;;6.63;2.20;;;;;;;-144.13;100.00;64086.75;4956431;28;20035;-50
2021/07/06 07:18:46;;;;;;;5.82;2.65;;;;;;;-144.13;100.00;64086.75;4956962;28;20074;-51
2021/07/06 07:21:11;;;;;;;4.88;2.47;;;;;;;-144.13;100.00;64086.75;4952866;28;20616;-50
2021/07/06 07:23:38;;;;;;;5.45;2.33;;;;;;;-144.13;100.00;64086.75;4953649;28;20046;-51
2021/07/06 07:26:03;;;;;;;4.03;2.17;;;;;;;-144.13;100.00;64086.75;4955555;28;20114;-52
2021/07/06 07:28:28;;;;;;;4.88;2.20;;;;;;;-144.13;100.00;64086.75;4955225;28;20110;-50
2021/07/06 07:30:54;;;;;;;3.20;2.47;;;;;;;-144.13;100.00;64086.75;4955027;28;20030;-50
2021/07/06 07:33:19;;;;;;;2.33;2.00;;;;;;;-144.13;100.00;64086.75;4952074;28;20041;-50
2021/07/06 07:35:45;;;;;;;4.25;2.20;;;;;;;-144.13;100.00;64086.75;4959699;28;20408;-49
2021/07/06 07:38:11;;;;;;;4.22;2.10;;;;;;;-144.13;100.00;64086.75;4954140;28;20122;-51
2021/07/06 07:40:36;;;;;;;2.40;2.20;;;;;;;-144.13;100.00;64086.75;4957781;28;20149;-50
2021/07/06 07:43:06;;;;;;;3.15;2.20;;;;;;;-144.13;100.00;64086.75;4959838;28;20046;-49
2021/07/06 07:45:36;;;;;;;2.67;2.00;;;;;;;-144.13;100.00;64086.75;4958220;28;20031;-50
2021/07/06 07:48:03;;;;;;;6.10;2.10;;;;;;;-144.13;100.00;64086.75;4953684;28;20034;-52
2021/07/06 07:50:28;;;;;;;2.45;2.05;;;;;;;-144.13;100.00;64086.75;4958192;28;20145;-50
2021/07/06 07:52:54;;;;;;;4.70;2.05;;;;;;;-144.13;100.00;64086.75;4955668;28;20386;-50
2021/07/06 07:55:19;;;;;;;2.72;2.00;;;;;;;-144.13;100.00;64086.75;4957829;28;20037;-51
2021/07/06 07:57:45;;;;;;;5.32;2.30;;;;;;;-144.13;100.00;64086.75;4954334;28;20549;-50
2021/07/06 08:00:12;;;;;;;2.45;1.90;;;;;;;-144.13;100.00;64086.75;4956807;28;20027;-52
2021/07/06 08:02:37;;;;;;;3.38;1.60;;;;;;;-144.13;100.00;64086.75;4952261;28;20070;-50
2021/07/06 08:05:03;;;;;;;3.80;1.58;;;;;;;-144.13;100.00;64086.75;4957808;28;20451;-52
2021/07/06 08:07:30;;;;;;;3.45;1.60;;;;;;;-144.13;100.00;64086.75;4955765;28;20035;-50
2021/07/06 08:09:56;;;;;;;5.57;1.48;;;;;;;-144.13;100.00;64086.75;4955655;28;20091;-51
2021/07/06 08:12:22;;;;;;;10.07;2.00;;;;;;;-144.13;100.00;64086.75;4956358;28;20031;-50
2021/07/06 08:14:49;;;;;;;4.30;1.63;;;;;;;-144.13;100.00;64086.75;4955671;28;20046;-52
2021/07/06 08:17:15;;;;;;;3.58;1.55;;;;;;;-144.13;100.00;64086.75;4956912;28;20469;-50
2021/07/06 08:19:40;;;;;;;2.83;1.40;;;;;;;-144.13;100.00;64086.75;4953954;28;20043;-52
2021/07/06 08:22:06;;;;;;;1.35;1.17;;;;;;;-144.13;100.00;64086.75;4958285;28;20115;-51
2021/07/06 08:24:31;;;;;;;1.52;1.30;;;;;;;-144.13;100.00;64086.75;4953624;28;20054;-50
2021/07/06 08:26:57;;;;;;;1.40;1.27;;;;;;;-144.13;100.00;64086.75;4953629;28;20027;-52
2021/07/06 08:29:24;;;;;;;4.00;1.40;;;;;;;-144.13;100.00;64086.75;4953189;28;20160;-52
2021/07/06 08:31:49;;;;;;;2.50;1.23;;;;;;;-144.13;100.00;64086.75;4957317;28;20106;-50
2021/07/06 08:34:15;;;;;;;2.15;1.52;;;;;;;-144.13;100.00;64086.75;4955895;28;20110;-51
2021/07/06 08:36:40;;;;;;;3.28;1.30;;;;;;;-144.13;100.00;64086.75;4960093;28;20039;-50
2021/07/06 08:39:06;;;;;;;3.53;1.38;;;;;;;-144.13;100.00;64086.75;4954409;28;20023;-52
2021/07/06 08:41:33;;;;;;;3.92;1.27;;;;;;;-144.13;100.00;64086.75;4955408;28;20078;-51
2021/07/06 08:43:59;;;;;;;2.70;1.17;;;;;;;-144.13;100.00;64086.75;4959338;28;20500;-52
2021/07/06 08:46:24;;;;;;;1.73;1.15;;;;;;;-144.13;100.00;64086.75;4955593;28;20035;-50
2021/07/06 08:48:50;;;;;;;1.08;0.98;;;;;;;-144.13;100.00;64086.75;4960849;28;20658;-50
2021/07/06 08:51:19;;;;;;;2.22;1.00;;;;;;;-144.13;100.00;64086.75;4957537;28;20117;-52
2021/07/06 08:53:46;;;;;;;1.88;0.90;;;;;;;-144.13;100.00;64086.75;4961838;28;20015;-50
2021/07/06 08:56:12;;;;;;;3.80;1.10;;;;;;;-144.13;100.00;64086.75;4951928;28;20023;-49
2021/07/06 08:58:37;;;;;;;2.75;1.02;;;;;;;-144.13;100.00;64086.75;4959167;28;20559;-53
2021/07/06 09:01:03;;;;;;;1.27;1.08;;;;;;;-144.13;100.00;64086.75;4955066;28;20034;-52
2021/07/06 09:04:05;;;;;;;0.90;0.90;;;;;;;-144.13;100.00;64086.75;4957030;28;20433;-52
2021/07/06 09:06:54;;;;;;;1.25;1.08;;;;;;;-144.13;100.00;64086.75;4953132;28;20728;-52
2021/07/06 09:09:30;;;;;;;1.10;1.00;;;;;;;-144.13;100.00;64086.75;4954172;28;20027;-52
2021/07/06 09:11:57;;;;;;;1.25;0.85;;;;;;;-144.13;100.00;64086.75;4959343;28;20030;-52
2021/07/06 09:14:29;;;;;;;1.55;1.15;;;;;;;-144.13;100.00;64086.75;4956125;28;20027;-53
2021/07/06 09:17:13;;;;;;;2.47;1.00;;;;;;;-144.13;100.00;64086.75;4957035;28;20092;-52
2021/07/06 09:19:47;;;;;;;2.40;1.08;;;;;;;-144.13;100.00;64086.75;4955284;28;20027;-50
2021/07/06 09:22:19;;;;;;;2.28;1.02;;;;;;;-144.13;100.00;64086.75;4958112;28;20027;-50
2021/07/06 09:24:56;;;;;;;3.60;1.10;;;;;;;-144.13;100.00;64086.75;4955044;28;20031;-49
2021/07/06 09:27:30;;;;;;;1.20;0.95;;;;;;;-144.13;100.00;64086.75;4955763;28;20030;-52
2021/07/06 09:30:07;;;;;;;1.60;1.13;;;;;;;-144.13;100.00;64086.75;4943371;28;20551;-51
2021/07/06 09:32:34;;;;;;;1.10;1.00;;;;;;;-144.13;100.00;64086.75;4948615;28;20043;-53
2021/07/06 09:35:13;;;;;;;2.33;1.30;;;;;;;-144.13;100.00;64086.75;4957626;28;20164;-51
2021/07/06 09:37:59;;;;;;;6.80;1.17;;;;;;;-144.13;100.00;64086.75;4955842;28;20035;-51
2021/07/06 09:40:38;;;;;;;1.85;1.38;;;;;;;-144.13;100.00;64086.75;4956703;28;20038;-51
2021/07/06 09:43:22;;;;;;;1.75;1.27;;;;;;;-144.13;100.00;64086.75;4952856;28;20070;-52
2021/07/06 09:45:48;;;;;;;1.27;1.17;;;;;;;-144.13;100.00;64086.75;4959370;28;20031;-50
2021/07/06 09:48:13;;;;;;;1.73;1.25;;;;;;;-144.13;100.00;64086.75;4957248;28;20026;-51
2021/07/06 09:50:39;;;;;;;1.30;1.20;;;;;;;-144.13;100.00;64086.75;4955599;28;20097;-49
2021/07/06 09:53:24;;;;;;;1.83;1.20;;;;;;;-144.13;100.00;64086.75;4958043;28;20096;-52
2021/07/06 09:55:50;;;;;;;1.02;0.93;;;;;;;-144.13;100.00;64086.75;4949968;28;20027;-50
2021/07/06 09:58:15;;;;;;;4.70;1.20;;;;;;;-144.13;100.00;64086.75;4957390;28;20045;-51
2021/07/06 10:00:40;;;;;;;2.60;1.80;;;;;;;-144.13;100.00;64086.75;4948409;28;20031;-52
2021/07/06 10:03:07;;;;;;;3.30;1.10;;;;;;;-144.13;100.00;64086.75;4957116;28;20032;-52
2021/07/06 10:05:34;;;;;;;4.18;1.13;;;;;;;-144.13;100.00;64086.75;4950493;28;20058;-50
2021/07/06 10:08:00;;;;;;;1.85;0.80;;;;;;;-144.13;100.00;64086.75;4960913;28;20022;-51
2021/07/06 10:10:25;;;;;;;2.58;1.20;;;;;;;-144.13;100.00;64086.75;4942483;28;20076;-51
2021/07/06 10:12:51;;;;;;;1.83;1.17;;;;;;;-144.13;100.00;64086.75;4959216;28;20019;-52
2021/07/06 10:15:19;;;;;;;2.20;0.80;;;;;;;-144.13;100.00;64086.75;4951440;28;20028;-50
2021/07/06 10:17:46;;;;;;;2.20;1.00;;;;;;;-144.13;100.00;64086.75;4959381;28;20031;-52
2021/07/06 10:20:21;;;;;;;1.98;1.10;;;;;;;-144.13;100.00;64086.75;4955726;28;20022;-51
2021/07/06 10:22:48;;;;;;;2.05;0.73;;;;;;;-144.13;100.00;64086.75;4955448;28;20031;-50
2021/07/06 10:25:14;;;;;;;2.88;0.75;;;;;;;-144.13;100.00;64086.75;4954516;28;20033;-52
2021/07/06 10:27:43;;;;;;;2.10;1.08;;;;;;;-144.13;100.00;64086.75;4953934;28;20113;-52
2021/07/06 10:30:15;;;;;;;1.90;1.10;;;;;;;-144.13;100.00;64086.75;4953336;28;20457;-49
2021/07/06 10:33:00;;;;;;;1.42;0.93;;;;;;;-144.13;100.00;64086.75;4959221;28;20031;-49
2021/07/06 10:35:40;;;;;;;0.68;0.65;;;;;;;-144.13;100.00;64086.75;4958953;28;20060;-53
2021/07/06 10:38:28;;;;;;;0.75;0.75;;;;;;;-144.13;100.00;64086.75;4958766;28;20121;-50
2021/07/06 10:41:31;;;;;;;2.00;0.80;;;;;;;-144.13;100.00;64086.75;4957496;28;20023;-51
2021/07/06 10:43:58;;;;;;;0.75;0.60;;;;;;;-144.13;100.00;64086.75;4957066;28;20050;-52
2021/07/06 10:46:29;;;;;;;0.52;0.52;;;;;;;-144.13;100.00;64086.75;4957947;28;20405;-50
2021/07/06 10:49:07;;;;;;;1.02;0.82;;;;;;;-144.13;100.00;64086.75;4963579;28;20034;-50
2021/07/06 10:51:36;;;;;;;0.70;0.70;;;;;;;-144.13;100.00;64086.75;4959125;28;20046;-52
2021/07/06 10:54:14;;;;;;;0.57;0.57;;;;;;;-144.13;100.00;64086.75;4960671;28;20023;-50
2021/07/06 10:56:49;;;;;;;0.57;0.57;;;;;;;-144.13;100.00;64086.75;4951814;28;20432;-50
2021/07/06 10:59:20;;;;;;;0.90;0.65;;;;;;;-144.13;100.00;64086.75;4962272;28;20418;-51
2021/07/06 11:01:46;;;;;;;2.10;0.90;;;;;;;-144.13;100.00;64086.75;4955108;28;20405;-50
2021/07/06 11:04:13;;;;;;;0.73;0.73;;;;;;;-144.13;100.00;64086.75;4961211;28;20023;-52
2021/07/06 11:06:47;;;;;;;1.13;0.90;;;;;;;-144.13;100.00;64086.75;4956804;28;20067;-49
2021/07/06 11:09:35;;;;;;;2.35;0.90;;;;;;;-144.13;100.00;64086.75;4962284;28;20203;-50